sensor_id;sensor_type;location;lat;lon;timestamp;P1;durP1;ratioP1;P2;durP2;ratioP2
73107;SDS011;61559;50.476;15.588;2022-12-17T00:02:19;51.10;;;21.30;;
73107;SDS011;61559;50.476;15.588;2022-12-17T00:05:08;53.60;;;22.00;;
73107;SDS011;61559;50.476;15.588;2022-12-17T00:07:57;60.80;;;23.70;;
73107;SDS011;61559;50.476;15.588;2022-12-17T00:10:46;52.60;;;21.40;;
73107;SDS011;61559;50.476;15.588;2022-12-17T00:13:34;51.60;;;21.20;;
73107;SDS011;61559;50.476;15.588;2022-12-17T00:16:23;55.40;;;23.80;;
73107;SDS011;61559;50.476;15.588;2022-12-17T00:19:12;46.60;;;21.10;;
73107;SDS011;61559;50.476;15.588;2022-12-17T00:22:12;56.30;;;21.30;;
73107;SDS011;61559;50.476;15.588;2022-12-17T00:25:00;61.10;;;23.80;;
73107;SDS011;61559;50.476;15.588;2022-12-17T00:27:49;62.80;;;23.50;;
73107;SDS011;61559;50.476;15.588;2022-12-17T00:30:38;56.40;;;22.50;;
73107;SDS011;61559;50.476;15.588;2022-12-17T00:33:27;53.80;;;22.30;;
73107;SDS011;61559;50.476;15.588;2022-12-17T00:36:15;55.30;;;23.80;;
73107;SDS011;61559;50.476;15.588;2022-12-17T00:39:04;54.20;;;23.00;;
73107;SDS011;61559;50.476;15.588;2022-12-17T00:41:53;50.60;;;22.20;;
73107;SDS011;61559;50.476;15.588;2022-12-17T00:44:51;57.40;;;23.70;;
73107;SDS011;61559;50.476;15.588;2022-12-17T00:47:40;53.40;;;22.10;;
73107;SDS011;61559;50.476;15.588;2022-12-17T00:50:28;56.60;;;24.50;;
73107;SDS011;61559;50.476;15.588;2022-12-17T00:53:31;56.70;;;23.80;;
73107;SDS011;61559;50.476;15.588;2022-12-17T00:56:22;59.10;;;22.70;;
73107;SDS011;61559;50.476;15.588;2022-12-17T00:59:10;62.30;;;24.60;;
73107;SDS011;61559;50.476;15.588;2022-12-17T01:01:59;53.70;;;21.50;;
73107;SDS011;61559;50.476;15.588;2022-12-17T01:04:48;67.00;;;25.30;;
73107;SDS011;61559;50.476;15.588;2022-12-17T01:07:36;68.50;;;27.20;;
73107;SDS011;61559;50.476;15.588;2022-12-17T01:10:25;80.70;;;29.70;;
73107;SDS011;61559;50.476;15.588;2022-12-17T01:13:14;61.40;;;24.50;;
73107;SDS011;61559;50.476;15.588;2022-12-17T01:16:05;69.40;;;25.70;;
73107;SDS011;61559;50.476;15.588;2022-12-17T01:18:55;65.00;;;24.90;;
73107;SDS011;61559;50.476;15.588;2022-12-17T01:21:44;66.80;;;27.60;;
73107;SDS011;61559;50.476;15.588;2022-12-17T01:24:33;66.40;;;26.10;;
73107;SDS011;61559;50.476;15.588;2022-12-17T01:27:23;71.00;;;27.60;;
73107;SDS011;61559;50.476;15.588;2022-12-17T01:30:11;64.50;;;25.90;;
73107;SDS011;61559;50.476;15.588;2022-12-17T01:33:01;54.80;;;21.50;;
73107;SDS011;61559;50.476;15.588;2022-12-17T01:35:54;55.30;;;25.10;;
73107;SDS011;61559;50.476;15.588;2022-12-17T01:38:43;61.40;;;23.50;;
73107;SDS011;61559;50.476;15.588;2022-12-17T01:41:32;67.00;;;26.40;;
73107;SDS011;61559;50.476;15.588;2022-12-17T01:47:38;64.20;;;25.80;;
73107;SDS011;61559;50.476;15.588;2022-12-17T01:50:30;65.20;;;24.70;;
73107;SDS011;61559;50.476;15.588;2022-12-17T01:53:22;60.40;;;25.30;;
73107;SDS011;61559;50.476;15.588;2022-12-17T01:56:13;55.80;;;24.00;;
73107;SDS011;61559;50.476;15.588;2022-12-17T01:59:02;53.30;;;22.60;;
73107;SDS011;61559;50.476;15.588;2022-12-17T02:01:53;67.80;;;24.70;;
73107;SDS011;61559;50.476;15.588;2022-12-17T02:04:42;78.70;;;28.60;;
73107;SDS011;61559;50.476;15.588;2022-12-17T02:07:37;57.80;;;23.10;;
73107;SDS011;61559;50.476;15.588;2022-12-17T02:10:37;50.00;;;20.60;;
73107;SDS011;61559;50.476;15.588;2022-12-17T02:13:31;60.30;;;23.20;;
73107;SDS011;61559;50.476;15.588;2022-12-17T02:16:25;75.90;;;27.20;;
73107;SDS011;61559;50.476;15.588;2022-12-17T02:19:22;58.60;;;23.30;;
73107;SDS011;61559;50.476;15.588;2022-12-17T02:22:19;55.30;;;25.00;;
73107;SDS011;61559;50.476;15.588;2022-12-17T02:25:16;64.30;;;24.50;;
73107;SDS011;61559;50.476;15.588;2022-12-17T02:28:15;63.70;;;24.60;;
73107;SDS011;61559;50.476;15.588;2022-12-17T02:31:04;85.60;;;30.50;;
73107;SDS011;61559;50.476;15.588;2022-12-17T02:33:53;80.20;;;26.10;;
73107;SDS011;61559;50.476;15.588;2022-12-17T02:36:42;60.20;;;23.60;;
73107;SDS011;61559;50.476;15.588;2022-12-17T02:39:31;86.00;;;32.20;;
73107;SDS011;61559;50.476;15.588;2022-12-17T02:42:22;72.20;;;27.70;;
73107;SDS011;61559;50.476;15.588;2022-12-17T02:45:12;78.50;;;29.20;;
73107;SDS011;61559;50.476;15.588;2022-12-17T02:48:01;60.70;;;24.40;;
73107;SDS011;61559;50.476;15.588;2022-12-17T02:50:53;78.20;;;28.00;;
73107;SDS011;61559;50.476;15.588;2022-12-17T02:53:43;67.10;;;24.00;;
73107;SDS011;61559;50.476;15.588;2022-12-17T02:56:36;64.00;;;24.40;;
73107;SDS011;61559;50.476;15.588;2022-12-17T02:59:25;74.10;;;26.30;;
73107;SDS011;61559;50.476;15.588;2022-12-17T03:02:14;62.70;;;23.00;;
73107;SDS011;61559;50.476;15.588;2022-12-17T03:05:03;72.40;;;25.20;;
73107;SDS011;61559;50.476;15.588;2022-12-17T03:10:59;57.70;;;21.40;;
73107;SDS011;61559;50.476;15.588;2022-12-17T03:13:48;60.70;;;24.70;;
73107;SDS011;61559;50.476;15.588;2022-12-17T03:16:37;72.10;;;25.30;;
73107;SDS011;61559;50.476;15.588;2022-12-17T03:19:26;77.00;;;27.90;;
73107;SDS011;61559;50.476;15.588;2022-12-17T03:22:15;74.80;;;26.60;;
73107;SDS011;61559;50.476;15.588;2022-12-17T03:25:04;67.40;;;24.60;;
73107;SDS011;61559;50.476;15.588;2022-12-17T03:28:01;62.50;;;24.50;;
73107;SDS011;61559;50.476;15.588;2022-12-17T03:30:50;74.70;;;27.90;;
73107;SDS011;61559;50.476;15.588;2022-12-17T03:33:39;96.60;;;32.40;;
73107;SDS011;61559;50.476;15.588;2022-12-17T03:36:28;77.40;;;28.70;;
73107;SDS011;61559;50.476;15.588;2022-12-17T03:39:20;59.00;;;24.20;;
73107;SDS011;61559;50.476;15.588;2022-12-17T03:42:10;62.90;;;23.70;;
73107;SDS011;61559;50.476;15.588;2022-12-17T03:44:59;52.90;;;22.40;;
73107;SDS011;61559;50.476;15.588;2022-12-17T03:47:47;80.90;;;28.00;;
73107;SDS011;61559;50.476;15.588;2022-12-17T03:50:36;63.60;;;24.30;;
73107;SDS011;61559;50.476;15.588;2022-12-17T03:53:26;71.20;;;26.20;;
73107;SDS011;61559;50.476;15.588;2022-12-17T03:56:15;58.20;;;21.60;;
73107;SDS011;61559;50.476;15.588;2022-12-17T03:59:03;63.60;;;25.70;;
73107;SDS011;61559;50.476;15.588;2022-12-17T04:01:52;65.10;;;23.10;;
73107;SDS011;61559;50.476;15.588;2022-12-17T04:04:42;68.10;;;25.40;;
73107;SDS011;61559;50.476;15.588;2022-12-17T04:07:31;68.50;;;24.60;;
73107;SDS011;61559;50.476;15.588;2022-12-17T04:10:20;60.30;;;22.80;;
73107;SDS011;61559;50.476;15.588;2022-12-17T04:13:08;65.50;;;24.10;;
73107;SDS011;61559;50.476;15.588;2022-12-17T04:15:57;65.30;;;25.30;;
73107;SDS011;61559;50.476;15.588;2022-12-17T04:18:46;71.40;;;27.00;;
73107;SDS011;61559;50.476;15.588;2022-12-17T04:21:34;58.00;;;24.20;;
73107;SDS011;61559;50.476;15.588;2022-12-17T04:24:23;58.00;;;22.70;;
73107;SDS011;61559;50.476;15.588;2022-12-17T04:27:12;71.80;;;24.30;;
73107;SDS011;61559;50.476;15.588;2022-12-17T04:30:01;63.40;;;24.00;;
73107;SDS011;61559;50.476;15.588;2022-12-17T04:32:50;60.40;;;24.40;;
73107;SDS011;61559;50.476;15.588;2022-12-17T04:35:39;57.00;;;23.20;;
73107;SDS011;61559;50.476;15.588;2022-12-17T04:38:27;65.50;;;26.30;;
73107;SDS011;61559;50.476;15.588;2022-12-17T04:41:16;68.90;;;26.00;;
73107;SDS011;61559;50.476;15.588;2022-12-17T04:44:05;61.10;;;22.30;;
73107;SDS011;61559;50.476;15.588;2022-12-17T04:46:54;64.10;;;22.90;;
73107;SDS011;61559;50.476;15.588;2022-12-17T04:49:43;62.10;;;24.70;;
73107;SDS011;61559;50.476;15.588;2022-12-17T04:52:37;51.60;;;21.40;;
73107;SDS011;61559;50.476;15.588;2022-12-17T04:55:25;51.20;;;21.00;;
73107;SDS011;61559;50.476;15.588;2022-12-17T04:58:14;56.80;;;23.80;;
73107;SDS011;61559;50.476;15.588;2022-12-17T05:01:03;60.20;;;23.20;;
73107;SDS011;61559;50.476;15.588;2022-12-17T05:03:51;51.60;;;21.90;;
73107;SDS011;61559;50.476;15.588;2022-12-17T05:06:45;49.50;;;20.50;;
73107;SDS011;61559;50.476;15.588;2022-12-17T05:09:34;57.80;;;21.80;;
73107;SDS011;61559;50.476;15.588;2022-12-17T05:12:24;53.30;;;22.70;;
73107;SDS011;61559;50.476;15.588;2022-12-17T05:15:13;69.30;;;24.60;;
73107;SDS011;61559;50.476;15.588;2022-12-17T05:18:06;58.10;;;23.80;;
73107;SDS011;61559;50.476;15.588;2022-12-17T05:20:55;137.90;;;44.30;;
73107;SDS011;61559;50.476;15.588;2022-12-17T05:23:43;97.50;;;33.80;;
73107;SDS011;61559;50.476;15.588;2022-12-17T05:26:32;61.30;;;24.20;;
73107;SDS011;61559;50.476;15.588;2022-12-17T05:29:21;68.80;;;27.20;;
73107;SDS011;61559;50.476;15.588;2022-12-17T05:32:10;122.50;;;47.20;;
73107;SDS011;61559;50.476;15.588;2022-12-17T05:34:58;88.20;;;34.20;;
73107;SDS011;61559;50.476;15.588;2022-12-17T05:37:47;70.60;;;27.10;;
73107;SDS011;61559;50.476;15.588;2022-12-17T05:40:35;59.00;;;22.10;;
73107;SDS011;61559;50.476;15.588;2022-12-17T05:43:24;47.90;;;19.70;;
73107;SDS011;61559;50.476;15.588;2022-12-17T05:46:12;45.20;;;17.80;;
73107;SDS011;61559;50.476;15.588;2022-12-17T05:49:01;49.00;;;21.70;;
73107;SDS011;61559;50.476;15.588;2022-12-17T05:51:50;46.20;;;19.50;;
73107;SDS011;61559;50.476;15.588;2022-12-17T05:54:38;50.30;;;20.40;;
73107;SDS011;61559;50.476;15.588;2022-12-17T05:57:26;50.70;;;20.30;;
73107;SDS011;61559;50.476;15.588;2022-12-17T06:00:23;46.50;;;20.40;;
73107;SDS011;61559;50.476;15.588;2022-12-17T06:03:12;50.70;;;20.30;;
73107;SDS011;61559;50.476;15.588;2022-12-17T06:06:01;52.30;;;19.90;;
73107;SDS011;61559;50.476;15.588;2022-12-17T06:08:50;51.40;;;19.30;;
73107;SDS011;61559;50.476;15.588;2022-12-17T06:11:39;49.10;;;17.90;;
73107;SDS011;61559;50.476;15.588;2022-12-17T06:14:30;52.60;;;20.20;;
73107;SDS011;61559;50.476;15.588;2022-12-17T06:17:19;46.60;;;18.90;;
73107;SDS011;61559;50.476;15.588;2022-12-17T06:20:08;47.30;;;19.90;;
73107;SDS011;61559;50.476;15.588;2022-12-17T06:23:00;48.10;;;19.80;;
73107;SDS011;61559;50.476;15.588;2022-12-17T06:25:52;50.80;;;21.00;;
73107;SDS011;61559;50.476;15.588;2022-12-17T06:28:41;51.80;;;22.30;;
73107;SDS011;61559;50.476;15.588;2022-12-17T06:31:30;49.90;;;20.80;;
73107;SDS011;61559;50.476;15.588;2022-12-17T06:34:19;51.10;;;19.00;;
73107;SDS011;61559;50.476;15.588;2022-12-17T06:37:07;45.90;;;19.40;;
73107;SDS011;61559;50.476;15.588;2022-12-17T06:39:57;49.90;;;19.70;;
73107;SDS011;61559;50.476;15.588;2022-12-17T06:42:52;45.60;;;17.80;;
73107;SDS011;61559;50.476;15.588;2022-12-17T06:45:41;37.90;;;17.30;;
73107;SDS011;61559;50.476;15.588;2022-12-17T06:48:29;41.80;;;16.90;;
73107;SDS011;61559;50.476;15.588;2022-12-17T06:51:18;47.00;;;17.80;;
73107;SDS011;61559;50.476;15.588;2022-12-17T06:54:07;47.20;;;18.20;;
73107;SDS011;61559;50.476;15.588;2022-12-17T06:56:55;52.10;;;20.40;;
73107;SDS011;61559;50.476;15.588;2022-12-17T06:59:43;50.00;;;19.60;;
73107;SDS011;61559;50.476;15.588;2022-12-17T07:02:31;54.10;;;21.00;;
73107;SDS011;61559;50.476;15.588;2022-12-17T07:05:20;48.10;;;22.20;;
73107;SDS011;61559;50.476;15.588;2022-12-17T07:08:09;52.80;;;22.80;;
73107;SDS011;61559;50.476;15.588;2022-12-17T07:10:59;57.20;;;21.80;;
73107;SDS011;61559;50.476;15.588;2022-12-17T07:13:48;43.90;;;18.40;;
73107;SDS011;61559;50.476;15.588;2022-12-17T07:16:37;59.10;;;23.00;;
73107;SDS011;61559;50.476;15.588;2022-12-17T07:19:25;58.80;;;24.30;;
73107;SDS011;61559;50.476;15.588;2022-12-17T07:22:14;51.70;;;21.30;;
73107;SDS011;61559;50.476;15.588;2022-12-17T07:25:03;53.50;;;19.80;;
73107;SDS011;61559;50.476;15.588;2022-12-17T07:27:53;42.20;;;18.90;;
73107;SDS011;61559;50.476;15.588;2022-12-17T07:30:45;53.00;;;20.20;;
73107;SDS011;61559;50.476;15.588;2022-12-17T07:33:33;49.20;;;19.50;;
73107;SDS011;61559;50.476;15.588;2022-12-17T07:36:34;50.20;;;19.20;;
73107;SDS011;61559;50.476;15.588;2022-12-17T07:39:22;47.40;;;19.40;;
73107;SDS011;61559;50.476;15.588;2022-12-17T07:42:11;52.40;;;21.40;;
73107;SDS011;61559;50.476;15.588;2022-12-17T07:44:59;48.00;;;19.20;;
73107;SDS011;61559;50.476;15.588;2022-12-17T07:47:51;48.90;;;19.70;;
73107;SDS011;61559;50.476;15.588;2022-12-17T07:50:40;51.10;;;19.50;;
73107;SDS011;61559;50.476;15.588;2022-12-17T07:53:29;46.40;;;19.40;;
73107;SDS011;61559;50.476;15.588;2022-12-17T07:56:18;55.80;;;20.60;;
73107;SDS011;61559;50.476;15.588;2022-12-17T07:59:06;59.40;;;25.20;;
73107;SDS011;61559;50.476;15.588;2022-12-17T08:01:55;59.70;;;25.90;;
73107;SDS011;61559;50.476;15.588;2022-12-17T08:04:44;54.90;;;21.80;;
73107;SDS011;61559;50.476;15.588;2022-12-17T08:07:44;53.90;;;22.60;;
73107;SDS011;61559;50.476;15.588;2022-12-17T08:10:33;70.70;;;28.00;;
73107;SDS011;61559;50.476;15.588;2022-12-17T08:13:21;67.00;;;26.60;;
73107;SDS011;61559;50.476;15.588;2022-12-17T08:16:21;55.80;;;22.70;;
73107;SDS011;61559;50.476;15.588;2022-12-17T08:19:10;56.50;;;21.20;;
73107;SDS011;61559;50.476;15.588;2022-12-17T08:21:59;74.30;;;28.30;;
73107;SDS011;61559;50.476;15.588;2022-12-17T08:24:48;83.10;;;32.60;;
73107;SDS011;61559;50.476;15.588;2022-12-17T08:27:36;64.50;;;24.00;;
73107;SDS011;61559;50.476;15.588;2022-12-17T08:30:26;62.90;;;25.70;;
73107;SDS011;61559;50.476;15.588;2022-12-17T08:33:14;60.20;;;24.10;;
73107;SDS011;61559;50.476;15.588;2022-12-17T08:36:04;70.40;;;29.40;;
73107;SDS011;61559;50.476;15.588;2022-12-17T08:38:53;63.60;;;26.80;;
73107;SDS011;61559;50.476;15.588;2022-12-17T08:41:42;60.90;;;25.00;;
73107;SDS011;61559;50.476;15.588;2022-12-17T08:44:32;59.50;;;24.00;;
73107;SDS011;61559;50.476;15.588;2022-12-17T08:47:21;62.90;;;25.10;;
73107;SDS011;61559;50.476;15.588;2022-12-17T08:50:10;56.60;;;26.60;;
73107;SDS011;61559;50.476;15.588;2022-12-17T08:52:59;80.20;;;34.00;;
73107;SDS011;61559;50.476;15.588;2022-12-17T08:55:48;84.20;;;37.30;;
73107;SDS011;61559;50.476;15.588;2022-12-17T08:58:36;61.90;;;26.70;;
73107;SDS011;61559;50.476;15.588;2022-12-17T09:01:26;79.00;;;27.30;;
73107;SDS011;61559;50.476;15.588;2022-12-17T09:04:15;99.30;;;40.60;;
73107;SDS011;61559;50.476;15.588;2022-12-17T09:07:04;118.20;;;42.70;;
73107;SDS011;61559;50.476;15.588;2022-12-17T09:09:52;103.50;;;36.20;;
73107;SDS011;61559;50.476;15.588;2022-12-17T09:12:41;62.30;;;22.40;;
73107;SDS011;61559;50.476;15.588;2022-12-17T09:15:32;115.60;;;44.50;;
73107;SDS011;61559;50.476;15.588;2022-12-17T09:18:21;73.60;;;27.80;;
73107;SDS011;61559;50.476;15.588;2022-12-17T09:21:10;75.70;;;30.30;;
73107;SDS011;61559;50.476;15.588;2022-12-17T09:23:58;91.30;;;39.50;;
73107;SDS011;61559;50.476;15.588;2022-12-17T09:26:47;68.50;;;28.10;;
73107;SDS011;61559;50.476;15.588;2022-12-17T09:29:38;62.60;;;24.80;;
73107;SDS011;61559;50.476;15.588;2022-12-17T09:32:27;65.10;;;26.70;;
73107;SDS011;61559;50.476;15.588;2022-12-17T09:35:16;52.60;;;22.20;;
73107;SDS011;61559;50.476;15.588;2022-12-17T09:38:05;49.80;;;20.40;;
73107;SDS011;61559;50.476;15.588;2022-12-17T09:40:55;48.00;;;20.60;;
73107;SDS011;61559;50.476;15.588;2022-12-17T09:43:49;40.60;;;17.00;;
73107;SDS011;61559;50.476;15.588;2022-12-17T09:46:43;52.70;;;19.50;;
73107;SDS011;61559;50.476;15.588;2022-12-17T09:49:35;55.10;;;21.70;;
73107;SDS011;61559;50.476;15.588;2022-12-17T09:52:25;51.10;;;21.80;;
73107;SDS011;61559;50.476;15.588;2022-12-17T09:55:17;46.10;;;17.80;;
73107;SDS011;61559;50.476;15.588;2022-12-17T09:58:13;44.60;;;18.00;;
73107;SDS011;61559;50.476;15.588;2022-12-17T10:01:08;52.30;;;19.50;;
73107;SDS011;61559;50.476;15.588;2022-12-17T10:04:02;78.20;;;29.60;;
73107;SDS011;61559;50.476;15.588;2022-12-17T10:06:56;65.70;;;24.10;;
73107;SDS011;61559;50.476;15.588;2022-12-17T10:09:46;56.50;;;22.70;;
73107;SDS011;61559;50.476;15.588;2022-12-17T10:12:37;49.90;;;21.80;;
73107;SDS011;61559;50.476;15.588;2022-12-17T10:15:25;60.10;;;23.70;;
73107;SDS011;61559;50.476;15.588;2022-12-17T10:18:14;61.40;;;24.30;;
73107;SDS011;61559;50.476;15.588;2022-12-17T10:21:08;50.20;;;19.30;;
73107;SDS011;61559;50.476;15.588;2022-12-17T10:24:05;49.10;;;20.50;;
73107;SDS011;61559;50.476;15.588;2022-12-17T10:26:55;45.40;;;18.30;;
73107;SDS011;61559;50.476;15.588;2022-12-17T10:29:44;41.50;;;16.20;;
73107;SDS011;61559;50.476;15.588;2022-12-17T10:32:33;39.40;;;17.40;;
73107;SDS011;61559;50.476;15.588;2022-12-17T10:35:22;44.30;;;16.00;;
73107;SDS011;61559;50.476;15.588;2022-12-17T10:38:12;32.30;;;13.00;;
73107;SDS011;61559;50.476;15.588;2022-12-17T10:41:18;39.90;;;16.70;;
73107;SDS011;61559;50.476;15.588;2022-12-17T10:44:21;46.30;;;17.80;;
73107;SDS011;61559;50.476;15.588;2022-12-17T10:47:13;39.60;;;15.80;;
73107;SDS011;61559;50.476;15.588;2022-12-17T10:50:05;45.10;;;16.60;;
73107;SDS011;61559;50.476;15.588;2022-12-17T10:52:56;39.50;;;14.80;;
73107;SDS011;61559;50.476;15.588;2022-12-17T10:55:49;42.20;;;14.90;;
73107;SDS011;61559;50.476;15.588;2022-12-17T10:58:43;31.40;;;13.20;;
73107;SDS011;61559;50.476;15.588;2022-12-17T11:01:44;23.90;;;9.70;;
73107;SDS011;61559;50.476;15.588;2022-12-17T11:04:33;42.30;;;16.50;;
73107;SDS011;61559;50.476;15.588;2022-12-17T11:07:25;42.50;;;16.00;;
73107;SDS011;61559;50.476;15.588;2022-12-17T11:10:18;41.30;;;16.70;;
73107;SDS011;61559;50.476;15.588;2022-12-17T11:13:09;34.60;;;15.00;;
73107;SDS011;61559;50.476;15.588;2022-12-17T11:16:04;31.40;;;13.00;;
73107;SDS011;61559;50.476;15.588;2022-12-17T11:19:05;53.90;;;21.80;;
73107;SDS011;61559;50.476;15.588;2022-12-17T11:22:14;41.80;;;16.50;;
73107;SDS011;61559;50.476;15.588;2022-12-17T11:25:17;40.60;;;16.50;;
73107;SDS011;61559;50.476;15.588;2022-12-17T11:28:14;41.20;;;17.60;;
73107;SDS011;61559;50.476;15.588;2022-12-17T11:31:09;30.50;;;12.20;;
73107;SDS011;61559;50.476;15.588;2022-12-17T11:34:12;68.20;;;30.20;;
73107;SDS011;61559;50.476;15.588;2022-12-17T11:37:12;24.80;;;11.20;;
73107;SDS011;61559;50.476;15.588;2022-12-17T11:40:07;35.10;;;13.80;;
73107;SDS011;61559;50.476;15.588;2022-12-17T11:43:09;47.00;;;18.90;;
73107;SDS011;61559;50.476;15.588;2022-12-17T11:46:08;41.10;;;17.40;;
73107;SDS011;61559;50.476;15.588;2022-12-17T11:49:08;37.30;;;15.10;;
73107;SDS011;61559;50.476;15.588;2022-12-17T11:52:04;38.30;;;16.10;;
73107;SDS011;61559;50.476;15.588;2022-12-17T11:55:02;33.50;;;14.40;;
73107;SDS011;61559;50.476;15.588;2022-12-17T11:57:59;27.60;;;11.40;;
73107;SDS011;61559;50.476;15.588;2022-12-17T12:00:53;33.70;;;13.90;;
73107;SDS011;61559;50.476;15.588;2022-12-17T12:03:49;31.80;;;13.00;;
73107;SDS011;61559;50.476;15.588;2022-12-17T12:06:51;31.50;;;12.90;;
73107;SDS011;61559;50.476;15.588;2022-12-17T12:09:49;39.90;;;16.20;;
73107;SDS011;61559;50.476;15.588;2022-12-17T12:12:45;37.50;;;15.40;;
73107;SDS011;61559;50.476;15.588;2022-12-17T12:15:45;27.30;;;12.50;;
73107;SDS011;61559;50.476;15.588;2022-12-17T12:18:45;38.90;;;15.10;;
73107;SDS011;61559;50.476;15.588;2022-12-17T12:21:42;35.50;;;13.10;;
73107;SDS011;61559;50.476;15.588;2022-12-17T12:24:48;28.80;;;12.80;;
73107;SDS011;61559;50.476;15.588;2022-12-17T12:28:01;27.20;;;10.70;;
73107;SDS011;61559;50.476;15.588;2022-12-17T12:30:58;29.30;;;12.60;;
73107;SDS011;61559;50.476;15.588;2022-12-17T12:33:56;37.80;;;15.10;;
73107;SDS011;61559;50.476;15.588;2022-12-17T12:36:49;27.70;;;11.90;;
73107;SDS011;61559;50.476;15.588;2022-12-17T12:39:40;29.70;;;11.40;;
73107;SDS011;61559;50.476;15.588;2022-12-17T12:42:41;38.90;;;14.50;;
73107;SDS011;61559;50.476;15.588;2022-12-17T12:45:42;49.50;;;18.20;;
73107;SDS011;61559;50.476;15.588;2022-12-17T12:48:38;45.50;;;16.20;;
73107;SDS011;61559;50.476;15.588;2022-12-17T12:51:27;37.40;;;14.40;;
73107;SDS011;61559;50.476;15.588;2022-12-17T12:54:24;34.30;;;13.80;;
73107;SDS011;61559;50.476;15.588;2022-12-17T12:57:29;35.70;;;15.20;;
73107;SDS011;61559;50.476;15.588;2022-12-17T13:00:27;30.50;;;12.00;;
73107;SDS011;61559;50.476;15.588;2022-12-17T13:03:22;30.40;;;11.10;;
73107;SDS011;61559;50.476;15.588;2022-12-17T13:06:25;31.60;;;12.60;;
73107;SDS011;61559;50.476;15.588;2022-12-17T13:09:22;28.90;;;11.60;;
73107;SDS011;61559;50.476;15.588;2022-12-17T13:12:09;38.20;;;15.10;;
73107;SDS011;61559;50.476;15.588;2022-12-17T13:14:49;42.10;;;14.60;;
73107;SDS011;61559;50.476;15.588;2022-12-17T13:17:27;27.50;;;11.90;;
73107;SDS011;61559;50.476;15.588;2022-12-17T13:20:19;31.00;;;12.50;;
73107;SDS011;61559;50.476;15.588;2022-12-17T13:23:14;40.50;;;16.10;;
73107;SDS011;61559;50.476;15.588;2022-12-17T13:29:00;32.80;;;12.20;;
73107;SDS011;61559;50.476;15.588;2022-12-17T13:31:43;26.50;;;12.00;;
73107;SDS011;61559;50.476;15.588;2022-12-17T13:34:23;35.30;;;14.20;;
73107;SDS011;61559;50.476;15.588;2022-12-17T13:37:00;30.50;;;13.10;;
73107;SDS011;61559;50.476;15.588;2022-12-17T13:39:42;39.30;;;15.40;;
73107;SDS011;61559;50.476;15.588;2022-12-17T13:42:22;39.00;;;15.90;;
73107;SDS011;61559;50.476;15.588;2022-12-17T13:44:56;39.40;;;16.80;;
73107;SDS011;61559;50.476;15.588;2022-12-17T13:47:29;34.00;;;13.30;;
73107;SDS011;61559;50.476;15.588;2022-12-17T13:50:03;36.00;;;13.50;;
73107;SDS011;61559;50.476;15.588;2022-12-17T13:53:13;34.10;;;13.90;;
73107;SDS011;61559;50.476;15.588;2022-12-17T13:55:49;41.20;;;16.40;;
73107;SDS011;61559;50.476;15.588;2022-12-17T13:58:22;43.20;;;18.10;;
73107;SDS011;61559;50.476;15.588;2022-12-17T14:01:04;46.20;;;17.30;;
73107;SDS011;61559;50.476;15.588;2022-12-17T14:03:37;34.90;;;13.80;;
73107;SDS011;61559;50.476;15.588;2022-12-17T14:06:33;36.70;;;14.70;;
73107;SDS011;61559;50.476;15.588;2022-12-17T14:09:06;43.50;;;19.50;;
73107;SDS011;61559;50.476;15.588;2022-12-17T14:11:42;41.30;;;17.10;;
73107;SDS011;61559;50.476;15.588;2022-12-17T14:14:33;35.00;;;14.20;;
73107;SDS011;61559;50.476;15.588;2022-12-17T14:17:05;30.30;;;12.20;;
73107;SDS011;61559;50.476;15.588;2022-12-17T14:19:49;30.50;;;13.60;;
73107;SDS011;61559;50.476;15.588;2022-12-17T14:22:28;32.40;;;13.00;;
73107;SDS011;61559;50.476;15.588;2022-12-17T14:25:04;36.20;;;14.70;;
73107;SDS011;61559;50.476;15.588;2022-12-17T14:27:50;38.00;;;15.10;;
73107;SDS011;61559;50.476;15.588;2022-12-17T14:30:24;38.90;;;14.70;;
73107;SDS011;61559;50.476;15.588;2022-12-17T14:33:24;27.40;;;12.90;;
73107;SDS011;61559;50.476;15.588;2022-12-17T14:35:57;33.00;;;13.60;;
73107;SDS011;61559;50.476;15.588;2022-12-17T14:38:31;36.20;;;14.40;;
73107;SDS011;61559;50.476;15.588;2022-12-17T14:41:15;35.30;;;13.90;;
73107;SDS011;61559;50.476;15.588;2022-12-17T14:44:04;30.10;;;13.90;;
73107;SDS011;61559;50.476;15.588;2022-12-17T14:46:49;33.10;;;15.10;;
73107;SDS011;61559;50.476;15.588;2022-12-17T14:49:21;38.90;;;16.00;;
73107;SDS011;61559;50.476;15.588;2022-12-17T14:51:52;42.20;;;18.60;;
73107;SDS011;61559;50.476;15.588;2022-12-17T14:54:28;52.50;;;17.40;;
73107;SDS011;61559;50.476;15.588;2022-12-17T14:57:03;47.90;;;19.10;;
73107;SDS011;61559;50.476;15.588;2022-12-17T14:59:46;46.90;;;18.50;;
73107;SDS011;61559;50.476;15.588;2022-12-17T15:02:20;45.00;;;17.20;;
73107;SDS011;61559;50.476;15.588;2022-12-17T15:04:55;42.10;;;18.10;;
73107;SDS011;61559;50.476;15.588;2022-12-17T15:07:29;48.40;;;18.40;;
73107;SDS011;61559;50.476;15.588;2022-12-17T15:10:07;50.00;;;20.10;;
73107;SDS011;61559;50.476;15.588;2022-12-17T15:12:41;45.90;;;17.80;;
73107;SDS011;61559;50.476;15.588;2022-12-17T15:15:12;47.50;;;19.40;;
73107;SDS011;61559;50.476;15.588;2022-12-17T15:17:45;41.80;;;16.00;;
73107;SDS011;61559;50.476;15.588;2022-12-17T15:20:18;46.60;;;19.20;;
73107;SDS011;61559;50.476;15.588;2022-12-17T15:22:49;64.50;;;24.40;;
73107;SDS011;61559;50.476;15.588;2022-12-17T15:25:20;61.30;;;22.50;;
73107;SDS011;61559;50.476;15.588;2022-12-17T15:27:51;43.90;;;17.70;;
73107;SDS011;61559;50.476;15.588;2022-12-17T15:30:23;42.60;;;16.20;;
73107;SDS011;61559;50.476;15.588;2022-12-17T15:32:54;50.90;;;19.20;;
73107;SDS011;61559;50.476;15.588;2022-12-17T15:35:25;46.20;;;16.40;;
73107;SDS011;61559;50.476;15.588;2022-12-17T15:37:57;37.90;;;17.50;;
73107;SDS011;61559;50.476;15.588;2022-12-17T15:40:28;45.50;;;16.40;;
73107;SDS011;61559;50.476;15.588;2022-12-17T15:42:59;40.60;;;16.30;;
73107;SDS011;61559;50.476;15.588;2022-12-17T15:45:41;44.60;;;19.00;;
73107;SDS011;61559;50.476;15.588;2022-12-17T15:48:14;36.60;;;14.70;;
73107;SDS011;61559;50.476;15.588;2022-12-17T15:50:47;41.30;;;17.00;;
73107;SDS011;61559;50.476;15.588;2022-12-17T15:53:18;48.70;;;17.40;;
73107;SDS011;61559;50.476;15.588;2022-12-17T15:55:49;38.90;;;16.60;;
73107;SDS011;61559;50.476;15.588;2022-12-17T15:58:27;38.90;;;16.20;;
73107;SDS011;61559;50.476;15.588;2022-12-17T16:00:58;42.80;;;15.60;;
73107;SDS011;61559;50.476;15.588;2022-12-17T16:03:29;44.70;;;16.60;;
73107;SDS011;61559;50.476;15.588;2022-12-17T16:06:01;38.90;;;14.90;;
73107;SDS011;61559;50.476;15.588;2022-12-17T16:08:32;38.90;;;16.30;;
73107;SDS011;61559;50.476;15.588;2022-12-17T16:11:06;44.80;;;17.00;;
73107;SDS011;61559;50.476;15.588;2022-12-17T16:13:39;38.30;;;15.70;;
73107;SDS011;61559;50.476;15.588;2022-12-17T16:16:10;41.50;;;17.30;;
73107;SDS011;61559;50.476;15.588;2022-12-17T16:18:41;55.20;;;21.80;;
73107;SDS011;61559;50.476;15.588;2022-12-17T16:21:13;47.70;;;18.80;;